sensor_id;sensor_type;location;lat;lon;timestamp;temperature;humidity
70830;SHT30;58451;51.550;7.208;2023-03-29T00:01:22;5.91;71.88
70830;SHT30;58451;51.550;7.208;2023-03-29T00:03:06;5.87;71.48
70830;SHT30;58451;51.550;7.208;2023-03-29T00:04:38;5.87;71.65
70830;SHT30;58451;51.550;7.208;2023-03-29T00:06:11;5.84;71.65
70830;SHT30;58451;51.550;7.208;2023-03-29T00:07:52;5.83;71.55
70830;SHT30;58451;51.550;7.208;2023-03-29T00:09:24;5.82;71.47
70830;SHT30;58451;51.550;7.208;2023-03-29T00:10:57;5.80;71.88
70830;SHT30;58451;51.550;7.208;2023-03-29T00:12:30;5.78;71.77
70830;SHT30;58451;51.550;7.208;2023-03-29T00:14:02;5.78;71.48
70830;SHT30;58451;51.550;7.208;2023-03-29T00:15:34;5.79;71.50
70830;SHT30;58451;51.550;7.208;2023-03-29T00:17:06;5.78;72.15
70830;SHT30;58451;51.550;7.208;2023-03-29T00:18:38;5.78;73.55
70830;SHT30;58451;51.550;7.208;2023-03-29T00:20:10;5.77;73.02
70830;SHT30;58451;51.550;7.208;2023-03-29T00:21:42;5.75;72.65
70830;SHT30;58451;51.550;7.208;2023-03-29T00:23:14;5.76;72.22
70830;SHT30;58451;51.550;7.208;2023-03-29T00:24:46;5.74;72.70
70830;SHT30;58451;51.550;7.208;2023-03-29T00:26:19;5.73;72.28
70830;SHT30;58451;51.550;7.208;2023-03-29T00:27:51;5.73;72.63
70830;SHT30;58451;51.550;7.208;2023-03-29T00:29:23;5.73;72.35
70830;SHT30;58451;51.550;7.208;2023-03-29T00:31:02;5.72;72.08
70830;SHT30;58451;51.550;7.208;2023-03-29T00:32:39;5.72;71.98
70830;SHT30;58451;51.550;7.208;2023-03-29T00:34:11;5.73;71.95
70830;SHT30;58451;51.550;7.208;2023-03-29T00:35:43;5.74;71.92
70830;SHT30;58451;51.550;7.208;2023-03-29T00:37:15;5.75;71.83
70830;SHT30;58451;51.550;7.208;2023-03-29T00:38:49;5.74;71.82
70830;SHT30;58451;51.550;7.208;2023-03-29T00:40:20;5.78;71.80
70830;SHT30;58451;51.550;7.208;2023-03-29T00:41:52;5.78;71.73
70830;SHT30;58451;51.550;7.208;2023-03-29T00:43:25;5.80;71.78
70830;SHT30;58451;51.550;7.208;2023-03-29T00:45:04;5.81;71.83
70830;SHT30;58451;51.550;7.208;2023-03-29T00:46:42;5.84;71.85
70830;SHT30;58451;51.550;7.208;2023-03-29T00:48:23;5.85;71.75
70830;SHT30;58451;51.550;7.208;2023-03-29T00:50:11;5.87;71.70
70830;SHT30;58451;51.550;7.208;2023-03-29T00:51:48;5.89;71.87
70830;SHT30;58451;51.550;7.208;2023-03-29T00:54:57;5.92;72.17
70830;SHT30;58451;51.550;7.208;2023-03-29T00:56:37;5.94;72.15
70830;SHT30;58451;51.550;7.208;2023-03-29T00:58:14;5.97;72.05
70830;SHT30;58451;51.550;7.208;2023-03-29T00:59:53;5.97;71.95
70830;SHT30;58451;51.550;7.208;2023-03-29T01:01:28;6.00;71.92
70830;SHT30;58451;51.550;7.208;2023-03-29T01:03:12;6.01;71.92
70830;SHT30;58451;51.550;7.208;2023-03-29T01:04:56;6.04;72.10
70830;SHT30;58451;51.550;7.208;2023-03-29T01:06:36;6.05;72.42
70830;SHT30;58451;51.550;7.208;2023-03-29T01:08:15;6.07;72.85
70830;SHT30;58451;51.550;7.208;2023-03-29T01:10:00;6.10;72.35
70830;SHT30;58451;51.550;7.208;2023-03-29T01:11:41;6.12;71.98
70830;SHT30;58451;51.550;7.208;2023-03-29T01:13:21;6.13;71.95
70830;SHT30;58451;51.550;7.208;2023-03-29T01:15:26;6.15;72.10
70830;SHT30;58451;51.550;7.208;2023-03-29T01:16:59;6.18;71.87
70830;SHT30;58451;51.550;7.208;2023-03-29T01:18:31;6.20;71.73
70830;SHT30;58451;51.550;7.208;2023-03-29T01:20:05;6.22;71.72
70830;SHT30;58451;51.550;7.208;2023-03-29T01:22:04;6.22;71.73
70830;SHT30;58451;51.550;7.208;2023-03-29T01:28:07;6.24;71.85
70830;SHT30;58451;51.550;7.208;2023-03-29T01:29:48;6.27;71.65
70830;SHT30;58451;51.550;7.208;2023-03-29T01:31:29;6.28;71.90
70830;SHT30;58451;51.550;7.208;2023-03-29T01:34:55;6.31;72.10
70830;SHT30;58451;51.550;7.208;2023-03-29T01:38:52;6.33;71.70
70830;SHT30;58451;51.550;7.208;2023-03-29T01:40:26;6.36;71.57
70830;SHT30;58451;51.550;7.208;2023-03-29T01:42:06;6.36;71.52
70830;SHT30;58451;51.550;7.208;2023-03-29T01:44:03;6.36;71.42
70830;SHT30;58451;51.550;7.208;2023-03-29T01:49:49;6.39;71.32
70830;SHT30;58451;51.550;7.208;2023-03-29T01:51:54;6.40;71.20
70830;SHT30;58451;51.550;7.208;2023-03-29T01:53:44;6.41;71.33
70830;SHT30;58451;51.550;7.208;2023-03-29T01:55:26;6.43;71.28
70830;SHT30;58451;51.550;7.208;2023-03-29T01:57:04;6.43;71.10
70830;SHT30;58451;51.550;7.208;2023-03-29T01:58:50;6.44;71.28
70830;SHT30;58451;51.550;7.208;2023-03-29T02:00:28;6.44;71.17
70830;SHT30;58451;51.550;7.208;2023-03-29T02:02:04;6.45;71.02
70830;SHT30;58451;51.550;7.208;2023-03-29T02:03:43;6.44;71.00
70830;SHT30;58451;51.550;7.208;2023-03-29T02:05:21;6.44;70.98
70830;SHT30;58451;51.550;7.208;2023-03-29T02:06:54;6.45;70.98
70830;SHT30;58451;51.550;7.208;2023-03-29T02:08:29;6.45;71.05
70830;SHT30;58451;51.550;7.208;2023-03-29T02:10:02;6.46;70.90
70830;SHT30;58451;51.550;7.208;2023-03-29T02:11:37;6.47;71.02
70830;SHT30;58451;51.550;7.208;2023-03-29T02:13:13;6.47;71.10
70830;SHT30;58451;51.550;7.208;2023-03-29T02:14:45;6.48;71.13
70830;SHT30;58451;51.550;7.208;2023-03-29T02:16:17;6.48;70.95
70830;SHT30;58451;51.550;7.208;2023-03-29T02:17:49;6.49;71.05
70830;SHT30;58451;51.550;7.208;2023-03-29T02:19:22;6.51;70.87
70830;SHT30;58451;51.550;7.208;2023-03-29T02:20:56;6.52;70.80
70830;SHT30;58451;51.550;7.208;2023-03-29T02:22:31;6.54;70.75
70830;SHT30;58451;51.550;7.208;2023-03-29T02:24:18;6.55;70.82
70830;SHT30;58451;51.550;7.208;2023-03-29T02:25:52;6.56;70.87
70830;SHT30;58451;51.550;7.208;2023-03-29T02:27:27;6.57;70.95
70830;SHT30;58451;51.550;7.208;2023-03-29T02:29:00;6.58;70.83
70830;SHT30;58451;51.550;7.208;2023-03-29T02:30:42;6.59;70.77
70830;SHT30;58451;51.550;7.208;2023-03-29T02:32:29;6.62;70.67
70830;SHT30;58451;51.550;7.208;2023-03-29T02:36:09;6.66;70.63
70830;SHT30;58451;51.550;7.208;2023-03-29T02:37:49;6.67;70.63
70830;SHT30;58451;51.550;7.208;2023-03-29T02:39:26;6.69;70.58
70830;SHT30;58451;51.550;7.208;2023-03-29T02:41:02;6.71;70.53
70830;SHT30;58451;51.550;7.208;2023-03-29T02:42:34;6.72;70.65
70830;SHT30;58451;51.550;7.208;2023-03-29T02:44:09;6.74;70.55
70830;SHT30;58451;51.550;7.208;2023-03-29T02:45:45;6.74;70.53
70830;SHT30;58451;51.550;7.208;2023-03-29T02:47:22;6.76;70.48
70830;SHT30;58451;51.550;7.208;2023-03-29T02:49:02;6.77;70.42
70830;SHT30;58451;51.550;7.208;2023-03-29T02:50:36;6.79;70.40
70830;SHT30;58451;51.550;7.208;2023-03-29T02:52:13;6.80;70.33
70830;SHT30;58451;51.550;7.208;2023-03-29T02:55:53;6.83;70.32
70830;SHT30;58451;51.550;7.208;2023-03-29T02:57:25;6.83;70.30
70830;SHT30;58451;51.550;7.208;2023-03-29T02:58:58;6.86;70.20
70830;SHT30;58451;51.550;7.208;2023-03-29T03:00:30;6.88;70.22
70830;SHT30;58451;51.550;7.208;2023-03-29T03:02:02;6.89;70.10
70830;SHT30;58451;51.550;7.208;2023-03-29T03:03:35;6.89;70.03
70830;SHT30;58451;51.550;7.208;2023-03-29T03:05:07;6.91;70.08
70830;SHT30;58451;51.550;7.208;2023-03-29T03:06:40;6.92;70.03
70830;SHT30;58451;51.550;7.208;2023-03-29T03:08:13;6.95;69.97
70830;SHT30;58451;51.550;7.208;2023-03-29T03:09:45;6.97;69.93
70830;SHT30;58451;51.550;7.208;2023-03-29T03:11:18;6.97;69.90
70830;SHT30;58451;51.550;7.208;2023-03-29T03:12:49;6.99;69.83
70830;SHT30;58451;51.550;7.208;2023-03-29T03:14:22;7.01;69.83
70830;SHT30;58451;51.550;7.208;2023-03-29T03:15:53;7.02;69.80
70830;SHT30;58451;51.550;7.208;2023-03-29T03:17:26;7.03;69.77
70830;SHT30;58451;51.550;7.208;2023-03-29T03:18:58;7.05;69.72
70830;SHT30;58451;51.550;7.208;2023-03-29T03:20:31;7.06;69.70
70830;SHT30;58451;51.550;7.208;2023-03-29T03:22:03;7.07;69.65
70830;SHT30;58451;51.550;7.208;2023-03-29T03:23:36;7.09;69.57
70830;SHT30;58451;51.550;7.208;2023-03-29T03:25:09;7.11;69.57
70830;SHT30;58451;51.550;7.208;2023-03-29T03:26:41;7.12;69.53
70830;SHT30;58451;51.550;7.208;2023-03-29T03:28:16;7.15;69.45
70830;SHT30;58451;51.550;7.208;2023-03-29T03:29:48;7.17;69.18
70830;SHT30;58451;51.550;7.208;2023-03-29T03:31:38;7.18;69.15
70830;SHT30;58451;51.550;7.208;2023-03-29T03:33:41;7.20;69.23
70830;SHT30;58451;51.550;7.208;2023-03-29T03:35:37;7.22;69.13
70830;SHT30;58451;51.550;7.208;2023-03-29T03:37:10;7.24;69.10
70830;SHT30;58451;51.550;7.208;2023-03-29T03:38:42;7.26;69.03
70830;SHT30;58451;51.550;7.208;2023-03-29T03:40:14;7.30;68.92
70830;SHT30;58451;51.550;7.208;2023-03-29T03:41:46;7.30;68.83
70830;SHT30;58451;51.550;7.208;2023-03-29T03:43:19;7.33;68.80
70830;SHT30;58451;51.550;7.208;2023-03-29T03:44:52;7.34;68.78
70830;SHT30;58451;51.550;7.208;2023-03-29T03:46:42;7.36;68.80
70830;SHT30;58451;51.550;7.208;2023-03-29T03:48:14;7.38;68.80
70830;SHT30;58451;51.550;7.208;2023-03-29T03:49:56;7.38;68.73
70830;SHT30;58451;51.550;7.208;2023-03-29T03:51:28;7.39;68.67
70830;SHT30;58451;51.550;7.208;2023-03-29T03:53:01;7.40;68.70
70830;SHT30;58451;51.550;7.208;2023-03-29T03:54:46;7.40;68.68
70830;SHT30;58451;51.550;7.208;2023-03-29T03:56:34;7.39;68.58
70830;SHT30;58451;51.550;7.208;2023-03-29T03:58:28;7.38;68.63
70830;SHT30;58451;51.550;7.208;2023-03-29T04:00:00;7.41;68.72
70830;SHT30;58451;51.550;7.208;2023-03-29T04:01:42;7.41;68.85
70830;SHT30;58451;51.550;7.208;2023-03-29T04:03:17;7.41;69.20
70830;SHT30;58451;51.550;7.208;2023-03-29T04:04:50;7.38;69.75
70830;SHT30;58451;51.550;7.208;2023-03-29T04:06:25;7.38;69.50
70830;SHT30;58451;51.550;7.208;2023-03-29T04:08:34;7.36;69.62
70830;SHT30;58451;51.550;7.208;2023-03-29T04:10:33;7.33;70.23
70830;SHT30;58451;51.550;7.208;2023-03-29T04:12:14;7.33;69.98
70830;SHT30;58451;51.550;7.208;2023-03-29T04:13:46;7.32;70.03
70830;SHT30;58451;51.550;7.208;2023-03-29T04:15:40;7.30;70.23
70830;SHT30;58451;51.550;7.208;2023-03-29T04:17:12;7.28;70.17
70830;SHT30;58451;51.550;7.208;2023-03-29T04:19:02;7.27;70.80
70830;SHT30;58451;51.550;7.208;2023-03-29T04:20:33;7.24;71.00
70830;SHT30;58451;51.550;7.208;2023-03-29T04:22:06;7.22;70.98
70830;SHT30;58451;51.550;7.208;2023-03-29T04:23:40;7.21;71.88
70830;SHT30;58451;51.550;7.208;2023-03-29T04:25:13;7.20;71.93
70830;SHT30;58451;51.550;7.208;2023-03-29T04:26:51;7.20;71.42
70830;SHT30;58451;51.550;7.208;2023-03-29T04:28:27;7.20;71.30
70830;SHT30;58451;51.550;7.208;2023-03-29T04:30:12;7.20;71.80
70830;SHT30;58451;51.550;7.208;2023-03-29T04:32:03;7.18;72.48
70830;SHT30;58451;51.550;7.208;2023-03-29T04:33:56;7.16;72.17
70830;SHT30;58451;51.550;7.208;2023-03-29T04:35:31;7.17;71.82
70830;SHT30;58451;51.550;7.208;2023-03-29T04:37:03;7.15;71.70
70830;SHT30;58451;51.550;7.208;2023-03-29T04:38:40;7.16;71.82
70830;SHT30;58451;51.550;7.208;2023-03-29T04:40:18;7.16;71.82
70830;SHT30;58451;51.550;7.208;2023-03-29T04:42:05;7.17;72.85
70830;SHT30;58451;51.550;7.208;2023-03-29T04:43:38;7.16;73.02
70830;SHT30;58451;51.550;7.208;2023-03-29T04:45:17;7.16;72.17
70830;SHT30;58451;51.550;7.208;2023-03-29T04:47:02;7.16;72.07
70830;SHT30;58451;51.550;7.208;2023-03-29T04:48:54;7.18;72.10
70830;SHT30;58451;51.550;7.208;2023-03-29T04:50:35;7.20;72.03
70830;SHT30;58451;51.550;7.208;2023-03-29T04:52:08;7.22;72.12
70830;SHT30;58451;51.550;7.208;2023-03-29T04:53:40;7.22;72.05
70830;SHT30;58451;51.550;7.208;2023-03-29T04:55:12;7.22;72.93
70830;SHT30;58451;51.550;7.208;2023-03-29T04:56:49;7.22;73.35
70830;SHT30;58451;51.550;7.208;2023-03-29T04:58:38;7.22;72.82
70830;SHT30;58451;51.550;7.208;2023-03-29T05:00:09;7.24;72.47
70830;SHT30;58451;51.550;7.208;2023-03-29T05:02:03;7.25;72.63
70830;SHT30;58451;51.550;7.208;2023-03-29T05:03:35;7.26;72.52
70830;SHT30;58451;51.550;7.208;2023-03-29T05:05:15;7.27;72.53
70830;SHT30;58451;51.550;7.208;2023-03-29T05:06:47;7.28;72.37
70830;SHT30;58451;51.550;7.208;2023-03-29T05:08:19;7.28;72.47
70830;SHT30;58451;51.550;7.208;2023-03-29T05:10:10;7.30;72.43
70830;SHT30;58451;51.550;7.208;2023-03-29T05:11:42;7.31;72.40
70830;SHT30;58451;51.550;7.208;2023-03-29T05:13:14;7.32;72.68
70830;SHT30;58451;51.550;7.208;2023-03-29T05:14:47;7.33;72.62
70830;SHT30;58451;51.550;7.208;2023-03-29T05:16:19;7.33;72.78
70830;SHT30;58451;51.550;7.208;2023-03-29T05:17:51;7.35;72.43
70830;SHT30;58451;51.550;7.208;2023-03-29T05:19:23;7.36;72.52
70830;SHT30;58451;51.550;7.208;2023-03-29T05:20:56;7.36;73.18
70830;SHT30;58451;51.550;7.208;2023-03-29T05:22:30;7.35;73.42
70830;SHT30;58451;51.550;7.208;2023-03-29T05:24:02;7.33;73.32
70830;SHT30;58451;51.550;7.208;2023-03-29T05:25:53;7.33;73.22
70830;SHT30;58451;51.550;7.208;2023-03-29T05:27:25;7.33;73.28
70830;SHT30;58451;51.550;7.208;2023-03-29T05:29:03;7.36;73.05
70830;SHT30;58451;51.550;7.208;2023-03-29T05:30:34;7.36;73.13
70830;SHT30;58451;51.550;7.208;2023-03-29T05:32:12;7.37;73.32
70830;SHT30;58451;51.550;7.208;2023-03-29T05:33:46;7.37;73.23
70830;SHT30;58451;51.550;7.208;2023-03-29T05:35:19;7.38;73.63
70830;SHT30;58451;51.550;7.208;2023-03-29T05:36:50;7.39;73.77
70830;SHT30;58451;51.550;7.208;2023-03-29T05:38:23;7.39;73.72
70830;SHT30;58451;51.550;7.208;2023-03-29T05:39:55;7.39;74.12
70830;SHT30;58451;51.550;7.208;2023-03-29T05:41:36;7.37;73.85
70830;SHT30;58451;51.550;7.208;2023-03-29T05:43:31;7.36;74.78
70830;SHT30;58451;51.550;7.208;2023-03-29T05:45:04;7.34;75.95
70830;SHT30;58451;51.550;7.208;2023-03-29T05:46:36;7.34;75.00
70830;SHT30;58451;51.550;7.208;2023-03-29T05:48:09;7.34;74.65
70830;SHT30;58451;51.550;7.208;2023-03-29T05:49:43;7.37;75.55
70830;SHT30;58451;51.550;7.208;2023-03-29T05:51:19;7.36;75.17
70830;SHT30;58451;51.550;7.208;2023-03-29T05:52:55;7.41;74.75
70830;SHT30;58451;51.550;7.208;2023-03-29T05:54:27;7.44;74.70
70830;SHT30;58451;51.550;7.208;2023-03-29T05:55:58;7.47;74.60
70830;SHT30;58451;51.550;7.208;2023-03-29T05:57:31;7.50;74.62
70830;SHT30;58451;51.550;7.208;2023-03-29T05:59:07;7.51;75.35
70830;SHT30;58451;51.550;7.208;2023-03-29T06:00:40;7.53;74.87
70830;SHT30;58451;51.550;7.208;2023-03-29T06:02:23;7.53;75.27
70830;SHT30;58451;51.550;7.208;2023-03-29T06:03:56;7.54;75.30
70830;SHT30;58451;51.550;7.208;2023-03-29T06:05:35;7.58;75.10
70830;SHT30;58451;51.550;7.208;2023-03-29T06:07:08;7.61;74.95
70830;SHT30;58451;51.550;7.208;2023-03-29T06:08:43;7.64;74.80
70830;SHT30;58451;51.550;7.208;2023-03-29T06:10:28;7.67;75.12
70830;SHT30;58451;51.550;7.208;2023-03-29T06:12:12;7.70;75.28
70830;SHT30;58451;51.550;7.208;2023-03-29T06:13:51;7.73;75.30
70830;SHT30;58451;51.550;7.208;2023-03-29T06:15:23;7.75;75.45
70830;SHT30;58451;51.550;7.208;2023-03-29T06:17:02;7.80;75.08
70830;SHT30;58451;51.550;7.208;2023-03-29T06:18:34;7.83;75.03
70830;SHT30;58451;51.550;7.208;2023-03-29T06:20:07;7.89;75.20
70830;SHT30;58451;51.550;7.208;2023-03-29T06:21:42;7.91;75.05
70830;SHT30;58451;51.550;7.208;2023-03-29T06:23:16;7.94;75.18
70830;SHT30;58451;51.550;7.208;2023-03-29T06:24:52;7.99;75.50
70830;SHT30;58451;51.550;7.208;2023-03-29T06:26:31;8.00;75.30
70830;SHT30;58451;51.550;7.208;2023-03-29T06:28:03;8.05;75.10
70830;SHT30;58451;51.550;7.208;2023-03-29T06:29:37;8.08;74.93
70830;SHT30;58451;51.550;7.208;2023-03-29T06:31:09;8.11;74.95
70830;SHT30;58451;51.550;7.208;2023-03-29T06:32:42;8.16;74.77
70830;SHT30;58451;51.550;7.208;2023-03-29T06:34:25;8.19;74.62
70830;SHT30;58451;51.550;7.208;2023-03-29T06:36:12;8.24;74.97
70830;SHT30;58451;51.550;7.208;2023-03-29T06:37:46;8.30;74.72
70830;SHT30;58451;51.550;7.208;2023-03-29T06:39:28;8.38;74.68
70830;SHT30;58451;51.550;7.208;2023-03-29T06:41:19;8.44;74.72
70830;SHT30;58451;51.550;7.208;2023-03-29T06:43:20;8.47;74.78
70830;SHT30;58451;51.550;7.208;2023-03-29T06:45:08;8.52;74.70
70830;SHT30;58451;51.550;7.208;2023-03-29T06:46:40;8.57;74.52
70830;SHT30;58451;51.550;7.208;2023-03-29T06:48:12;8.62;74.45
70830;SHT30;58451;51.550;7.208;2023-03-29T06:49:44;8.69;74.57
70830;SHT30;58451;51.550;7.208;2023-03-29T06:51:33;8.74;74.23
70830;SHT30;58451;51.550;7.208;2023-03-29T06:53:05;8.80;74.08
70830;SHT30;58451;51.550;7.208;2023-03-29T06:54:37;8.84;74.00
70830;SHT30;58451;51.550;7.208;2023-03-29T06:56:09;8.86;73.93
70830;SHT30;58451;51.550;7.208;2023-03-29T06:57:41;8.89;73.83
70830;SHT30;58451;51.550;7.208;2023-03-29T06:59:13;8.92;73.73
70830;SHT30;58451;51.550;7.208;2023-03-29T07:01:05;8.97;73.62
70830;SHT30;58451;51.550;7.208;2023-03-29T07:02:49;8.98;73.57
70830;SHT30;58451;51.550;7.208;2023-03-29T07:04:21;9.02;73.48
70830;SHT30;58451;51.550;7.208;2023-03-29T07:06:16;9.11;73.35
70830;SHT30;58451;51.550;7.208;2023-03-29T07:07:50;9.16;73.23
70830;SHT30;58451;51.550;7.208;2023-03-29T07:09:51;9.24;73.00
70830;SHT30;58451;51.550;7.208;2023-03-29T07:11:44;9.28;72.68
70830;SHT30;58451;51.550;7.208;2023-03-29T07:13:26;9.37;72.65
70830;SHT30;58451;51.550;7.208;2023-03-29T07:14:58;9.46;72.60
70830;SHT30;58451;51.550;7.208;2023-03-29T07:16:45;9.53;72.60
70830;SHT30;58451;51.550;7.208;2023-03-29T07:18:22;9.56;71.75
70830;SHT30;58451;51.550;7.208;2023-03-29T07:19:53;9.60;71.93
70830;SHT30;58451;51.550;7.208;2023-03-29T07:21:50;9.66;71.60
70830;SHT30;58451;51.550;7.208;2023-03-29T07:23:25;9.72;71.60
70830;SHT30;58451;51.550;7.208;2023-03-29T07:24:56;9.74;71.17
70830;SHT30;58451;51.550;7.208;2023-03-29T07:26:30;9.80;71.25
70830;SHT30;58451;51.550;7.208;2023-03-29T07:28:02;9.83;71.07
70830;SHT30;58451;51.550;7.208;2023-03-29T07:29:35;9.84;71.27
70830;SHT30;58451;51.550;7.208;2023-03-29T07:31:10;9.86;71.03
70830;SHT30;58451;51.550;7.208;2023-03-29T07:32:48;9.87;70.97
70830;SHT30;58451;51.550;7.208;2023-03-29T07:34:36;9.89;70.98
70830;SHT30;58451;51.550;7.208;2023-03-29T07:36:09;9.89;70.27
70830;SHT30;58451;51.550;7.208;2023-03-29T07:37:41;9.91;70.45
70830;SHT30;58451;51.550;7.208;2023-03-29T07:39:15;9.92;70.27
70830;SHT30;58451;51.550;7.208;2023-03-29T07:40:55;9.97;70.52
70830;SHT30;58451;51.550;7.208;2023-03-29T07:42:44;10.01;70.47
70830;SHT30;58451;51.550;7.208;2023-03-29T07:44:20;10.06;70.17
70830;SHT30;58451;51.550;7.208;2023-03-29T07:45:51;10.10;70.30
70830;SHT30;58451;51.550;7.208;2023-03-29T07:47:23;10.18;70.15
70830;SHT30;58451;51.550;7.208;2023-03-29T07:48:56;10.24;70.07
70830;SHT30;58451;51.550;7.208;2023-03-29T07:50:28;10.29;69.87
70830;SHT30;58451;51.550;7.208;2023-03-29T07:52:03;10.35;69.73
70830;SHT30;58451;51.550;7.208;2023-03-29T07:53:36;10.38;69.28
70830;SHT30;58451;51.550;7.208;2023-03-29T07:55:10;10.43;69.25
70830;SHT30;58451;51.550;7.208;2023-03-29T07:57:09;10.44;68.93
70830;SHT30;58451;51.550;7.208;2023-03-29T07:58:45;10.48;69.23
70830;SHT30;58451;51.550;7.208;2023-03-29T08:00:17;10.48;69.22
70830;SHT30;58451;51.550;7.208;2023-03-29T08:01:56;10.50;68.97
70830;SHT30;58451;51.550;7.208;2023-03-29T08:03:50;10.56;68.57
70830;SHT30;58451;51.550;7.208;2023-03-29T08:05:23;10.61;68.80
70830;SHT30;58451;51.550;7.208;2023-03-29T08:07:14;10.65;68.18
70830;SHT30;58451;51.550;7.208;2023-03-29T08:09:00;10.68;68.13
70830;SHT30;58451;51.550;7.208;2023-03-29T08:10:32;10.70;68.12
70830;SHT30;58451;51.550;7.208;2023-03-29T08:12:26;10.74;67.35
70830;SHT30;58451;51.550;7.208;2023-03-29T08:13:59;10.73;66.92
70830;SHT30;58451;51.550;7.208;2023-03-29T08:15:49;10.71;66.52
70830;SHT30;58451;51.550;7.208;2023-03-29T08:17:27;10.74;66.23
70830;SHT30;58451;51.550;7.208;2023-03-29T08:18:59;10.87;66.77
70830;SHT30;58451;51.550;7.208;2023-03-29T08:20:42;10.98;67.05
70830;SHT30;58451;51.550;7.208;2023-03-29T08:22:14;11.07;66.90
70830;SHT30;58451;51.550;7.208;2023-03-29T08:24:15;11.13;65.00
70830;SHT30;58451;51.550;7.208;2023-03-29T08:25:53;11.30;66.15
70830;SHT30;58451;51.550;7.208;2023-03-29T08:27:25;11.41;66.13
70830;SHT30;58451;51.550;7.208;2023-03-29T08:28:58;11.49;66.07
70830;SHT30;58451;51.550;7.208;2023-03-29T08:30:30;11.50;65.12
70830;SHT30;58451;51.550;7.208;2023-03-29T08:32:04;11.45;64.32
70830;SHT30;58451;51.550;7.208;2023-03-29T08:33:36;11.47;64.90
70830;SHT30;58451;51.550;7.208;2023-03-29T08:35:26;11.46;64.77
70830;SHT30;58451;51.550;7.208;2023-03-29T08:37:19;11.40;64.07
70830;SHT30;58451;51.550;7.208;2023-03-29T08:38:51;11.40;64.30
70830;SHT30;58451;51.550;7.208;2023-03-29T08:40:24;11.43;64.65
70830;SHT30;58451;51.550;7.208;2023-03-29T08:48:48;11.66;64.28
70830;SHT30;58451;51.550;7.208;2023-03-29T08:50:31;11.75;64.63
70830;SHT30;58451;51.550;7.208;2023-03-29T08:52:18;11.85;64.67
70830;SHT30;58451;51.550;7.208;2023-03-29T08:54:40;11.93;64.57
70830;SHT30;58451;51.550;7.208;2023-03-29T08:56:40;11.94;64.00
70830;SHT30;58451;51.550;7.208;2023-03-29T08:58:31;11.94;63.57
70830;SHT30;58451;51.550;7.208;2023-03-29T09:00:05;11.85;63.53
70830;SHT30;58451;51.550;7.208;2023-03-29T09:01:50;11.72;64.03
70830;SHT30;58451;51.550;7.208;2023-03-29T09:03:29;11.51;65.42
70830;SHT30;58451;51.550;7.208;2023-03-29T09:05:34;11.34;66.50
70830;SHT30;58451;51.550;7.208;2023-03-29T09:07:19;11.33;66.67
70830;SHT30;58451;51.550;7.208;2023-03-29T09:08:51;11.29;67.22
70830;SHT30;58451;51.550;7.208;2023-03-29T09:10:26;11.24;67.12
70830;SHT30;58451;51.550;7.208;2023-03-29T09:20:10;11.15;68.23
70830;SHT30;58451;51.550;7.208;2023-03-29T09:23:54;11.19;68.27
70830;SHT30;58451;51.550;7.208;2023-03-29T09:26:20;11.14;68.57
70830;SHT30;58451;51.550;7.208;2023-03-29T09:28:33;11.20;68.65
70830;SHT30;58451;51.550;7.208;2023-03-29T09:32:21;11.18;68.37
70830;SHT30;58451;51.550;7.208;2023-03-29T09:34:05;11.20;68.25
70830;SHT30;58451;51.550;7.208;2023-03-29T09:36:16;11.24;68.25
70830;SHT30;58451;51.550;7.208;2023-03-29T09:37:58;11.31;68.02
70830;SHT30;58451;51.550;7.208;2023-03-29T09:39:31;11.32;68.03
70830;SHT30;58451;51.550;7.208;2023-03-29T09:42:57;11.48;67.72
70830;SHT30;58451;51.550;7.208;2023-03-29T09:44:44;11.59;67.35
70830;SHT30;58451;51.550;7.208;2023-03-29T09:46:43;11.81;67.23
70830;SHT30;58451;51.550;7.208;2023-03-29T09:48:22;12.07;66.52
70830;SHT30;58451;51.550;7.208;2023-03-29T09:50:01;12.30;66.18
70830;SHT30;58451;51.550;7.208;2023-03-29T09:52:05;12.63;65.53
70830;SHT30;58451;51.550;7.208;2023-03-29T09:53:46;12.91;64.53
70830;SHT30;58451;51.550;7.208;2023-03-29T09:55:26;13.22;64.83
70830;SHT30;58451;51.550;7.208;2023-03-29T09:57:24;13.35;62.32
70830;SHT30;58451;51.550;7.208;2023-03-29T09:58:57;13.38;62.63
70830;SHT30;58451;51.550;7.208;2023-03-29T10:00:29;13.55;63.47
70830;SHT30;58451;51.550;7.208;2023-03-29T10:02:07;13.68;62.75
70830;SHT30;58451;51.550;7.208;2023-03-29T10:03:49;13.74;62.93
70830;SHT30;58451;51.550;7.208;2023-03-29T10:05:24;13.64;61.83
70830;SHT30;58451;51.550;7.208;2023-03-29T10:07:01;13.58;62.48
70830;SHT30;58451;51.550;7.208;2023-03-29T10:10:09;13.41;61.90
70830;SHT30;58451;51.550;7.208;2023-03-29T10:11:53;13.35;62.52
70830;SHT30;58451;51.550;7.208;2023-03-29T10:13:29;13.22;62.25
70830;SHT30;58451;51.550;7.208;2023-03-29T10:15:05;13.21;62.42
70830;SHT30;58451;51.550;7.208;2023-03-29T10:16:52;13.27;62.57
70830;SHT30;58451;51.550;7.208;2023-03-29T10:18:28;13.41;62.48
70830;SHT30;58451;51.550;7.208;2023-03-29T10:20:02;13.56;62.30
70830;SHT30;58451;51.550;7.208;2023-03-29T10:21:39;13.67;62.43
70830;SHT30;58451;51.550;7.208;2023-03-29T10:23:15;13.75;62.63
70830;SHT30;58451;51.550;7.208;2023-03-29T10:24:49;13.87;62.37
70830;SHT30;58451;51.550;7.208;2023-03-29T10:26:27;13.97;61.42
70830;SHT30;58451;51.550;7.208;2023-03-29T10:28:04;13.91;61.22
70830;SHT30;58451;51.550;7.208;2023-03-29T10:29:42;13.80;61.55
70830;SHT30;58451;51.550;7.208;2023-03-29T10:31:17;13.75;61.95
70830;SHT30;58451;51.550;7.208;2023-03-29T10:32:56;13.67;61.83
70830;SHT30;58451;51.550;7.208;2023-03-29T10:34:30;13.63;61.80
70830;SHT30;58451;51.550;7.208;2023-03-29T10:36:05;13.62;62.00
70830;SHT30;58451;51.550;7.208;2023-03-29T10:37:38;13.65;61.47
70830;SHT30;58451;51.550;7.208;2023-03-29T10:39:13;13.74;61.78
70830;SHT30;58451;51.550;7.208;2023-03-29T10:40:52;13.82;62.05
70830;SHT30;58451;51.550;7.208;2023-03-29T10:42:33;13.91;61.25
70830;SHT30;58451;51.550;7.208;2023-03-29T10:44:05;13.92;61.17
70830;SHT30;58451;51.550;7.208;2023-03-29T10:45:55;13.88;61.00
70830;SHT30;58451;51.550;7.208;2023-03-29T10:47:43;13.87;61.25
70830;SHT30;58451;51.550;7.208;2023-03-29T10:49:19;13.87;61.45
70830;SHT30;58451;51.550;7.208;2023-03-29T10:50:56;13.91;61.50
70830;SHT30;58451;51.550;7.208;2023-03-29T10:52:31;13.97;61.82
70830;SHT30;58451;51.550;7.208;2023-03-29T10:54:03;14.04;61.42
70830;SHT30;58451;51.550;7.208;2023-03-29T10:55:45;14.11;61.13
70830;SHT30;58451;51.550;7.208;2023-03-29T10:57:27;14.12;60.45
70830;SHT30;58451;51.550;7.208;2023-03-29T10:59:31;14.10;60.93
70830;SHT30;58451;51.550;7.208;2023-03-29T11:01:50;14.14;60.50
70830;SHT30;58451;51.550;7.208;2023-03-29T11:09:12;14.31;60.80
70830;SHT30;58451;51.550;7.208;2023-03-29T11:11:31;14.34;59.83
70830;SHT30;58451;51.550;7.208;2023-03-29T11:13:48;14.61;59.50
70830;SHT30;58451;51.550;7.208;2023-03-29T11:19:28;15.56;58.52
70830;SHT30;58451;51.550;7.208;2023-03-29T11:23:15;15.95;56.72
70830;SHT30;58451;51.550;7.208;2023-03-29T11:25:28;16.00;55.13
70830;SHT30;58451;51.550;7.208;2023-03-29T11:31:03;16.30;55.38